createdAt,value
2017-12-06T00:01:54.576Z,5.72
2017-12-06T00:04:22.166Z,5.93
2017-12-06T00:06:49.736Z,6.97
2017-12-06T00:09:18.648Z,6.05
2017-12-06T00:11:47.211Z,6.05
2017-12-06T00:14:20.421Z,6.20
2017-12-06T00:16:48.754Z,5.82
2017-12-06T00:19:16.367Z,6.45
2017-12-06T00:21:44.706Z,6.22
2017-12-06T00:24:12.276Z,5.15
2017-12-06T00:26:39.868Z,6.53
2017-12-06T00:29:08.231Z,4.85
2017-12-06T00:31:36.596Z,6.22
2017-12-06T00:34:04.167Z,6.00
2017-12-06T00:36:32.531Z,5.78
2017-12-06T00:39:00.114Z,5.60
2017-12-06T00:41:28.464Z,5.15
2017-12-06T00:43:56.026Z,6.43
2017-12-06T00:46:23.645Z,5.87
2017-12-06T00:48:51.192Z,6.25
2017-12-06T00:51:18.759Z,5.90
2017-12-06T00:53:46.341Z,5.85
2017-12-06T00:56:13.915Z,6.05
2017-12-06T00:58:44.264Z,6.22
2017-12-06T01:01:11.828Z,6.10
2017-12-06T01:03:40.178Z,5.90
2017-12-06T01:06:07.759Z,6.40
2017-12-06T01:08:35.356Z,6.68
2017-12-06T01:11:02.908Z,5.85
2017-12-06T01:13:30.476Z,6.68
2017-12-06T01:15:58.071Z,7.60
2017-12-06T01:18:25.627Z,6.05
2017-12-06T01:20:53.265Z,7.72
2017-12-06T01:23:20.827Z,6.20
2017-12-06T01:25:48.420Z,6.80
2017-12-06T01:28:16.005Z,6.90
2017-12-06T01:30:44.384Z,6.45
2017-12-06T01:33:11.925Z,7.70
2017-12-06T01:35:39.526Z,7.70
2017-12-06T01:38:07.129Z,7.07
2017-12-06T01:40:34.694Z,5.82
2017-12-06T01:43:02.302Z,5.30
2017-12-06T01:45:30.648Z,4.97
2017-12-06T01:47:58.237Z,5.25
2017-12-06T01:50:26.590Z,6.37
2017-12-06T01:52:54.183Z,7.60
2017-12-06T01:55:21.789Z,7.93
2017-12-06T01:57:49.404Z,7.50
2017-12-06T02:00:16.977Z,6.97
2017-12-06T02:02:44.564Z,5.60
2017-12-06T02:05:12.167Z,7.53
2017-12-06T02:07:40.488Z,7.97
2017-12-06T02:10:08.076Z,7.10
2017-12-06T02:12:35.669Z,6.85
2017-12-06T02:15:04.042Z,6.50
2017-12-06T02:17:32.404Z,6.50
2017-12-06T02:20:00.007Z,7.82
2017-12-06T02:22:27.628Z,6.10
2017-12-06T02:24:55.202Z,6.03
2017-12-06T02:27:23.577Z,6.55
2017-12-06T02:29:51.947Z,6.43
2017-12-06T02:32:19.553Z,6.22
2017-12-06T02:34:47.108Z,6.15
2017-12-06T02:37:14.690Z,6.93
2017-12-06T02:39:54.206Z,5.20
2017-12-06T02:42:33.619Z,5.75
2017-12-06T02:45:13.790Z,6.93
2017-12-06T02:47:41.415Z,6.57
2017-12-06T02:50:08.995Z,5.85
2017-12-06T02:52:37.530Z,6.57
2017-12-06T02:55:05.137Z,5.43
2017-12-06T02:57:33.499Z,5.75
2017-12-06T03:00:01.077Z,5.70
2017-12-06T03:02:29.421Z,5.72
2017-12-06T03:04:57.018Z,4.97
2017-12-06T03:07:25.365Z,5.93
2017-12-06T03:09:52.950Z,5.18
2017-12-06T03:12:21.263Z,5.82
2017-12-06T03:14:48.804Z,5.00
2017-12-06T03:17:16.392Z,5.95
2017-12-06T03:19:43.951Z,6.15
2017-12-06T03:22:11.539Z,5.32
2017-12-06T03:24:39.098Z,4.95
2017-12-06T03:27:06.671Z,4.82
2017-12-06T03:29:34.230Z,6.25
2017-12-06T03:32:01.803Z,4.78
2017-12-06T03:34:30.126Z,5.07
2017-12-06T03:36:57.704Z,4.95
2017-12-06T03:39:25.266Z,5.53
2017-12-06T03:41:52.813Z,5.78
2017-12-06T03:44:20.419Z,4.65
2017-12-06T03:46:48.772Z,4.93
2017-12-06T03:49:16.340Z,4.85
2017-12-06T03:51:43.909Z,4.95
2017-12-06T03:54:11.484Z,5.37
2017-12-06T03:56:39.807Z,4.72
2017-12-06T03:59:07.442Z,4.60
2017-12-06T04:01:35.052Z,4.50
2017-12-06T04:04:02.609Z,4.93
2017-12-06T04:06:30.199Z,4.60
2017-12-06T04:08:58.552Z,4.70
2017-12-06T04:11:26.191Z,4.78
2017-12-06T04:13:54.529Z,5.00
2017-12-06T04:16:22.878Z,4.55
2017-12-06T04:18:50.428Z,4.97
2017-12-06T04:21:18.014Z,4.05
2017-12-06T04:23:46.346Z,4.30
2017-12-06T04:26:13.908Z,5.00
2017-12-06T04:28:41.481Z,4.55
2017-12-06T04:31:09.029Z,5.20
2017-12-06T04:33:36.613Z,4.25
2017-12-06T04:36:04.179Z,4.50
2017-12-06T04:38:31.772Z,3.20
2017-12-06T04:40:59.351Z,4.10
2017-12-06T04:43:26.969Z,4.40
2017-12-06T04:45:55.279Z,3.83
2017-12-06T04:48:22.879Z,4.60
2017-12-06T04:50:50.445Z,3.70
2017-12-06T04:53:18.001Z,3.62
2017-12-06T04:55:45.617Z,3.65
2017-12-06T04:58:13.165Z,3.78
2017-12-06T05:00:40.741Z,3.55
2017-12-06T05:03:08.324Z,4.15
2017-12-06T05:05:35.907Z,3.95
2017-12-06T05:08:03.472Z,4.80
2017-12-06T05:10:31.062Z,4.37
2017-12-06T05:12:58.635Z,4.82
2017-12-06T05:15:26.217Z,4.97
2017-12-06T05:17:53.810Z,4.75
2017-12-06T05:20:21.371Z,3.70
2017-12-06T05:22:48.986Z,4.50
2017-12-06T05:25:16.568Z,4.53
2017-12-06T05:27:44.147Z,4.97
2017-12-06T05:30:11.750Z,4.20
2017-12-06T05:32:39.347Z,4.18
2017-12-06T05:35:06.893Z,4.20
2017-12-06T05:37:34.477Z,5.00
2017-12-06T05:40:02.034Z,5.20
2017-12-06T05:42:29.610Z,4.72
2017-12-06T05:44:57.188Z,4.32
2017-12-06T05:47:25.515Z,5.35
2017-12-06T05:49:53.087Z,5.20
2017-12-06T05:52:20.664Z,7.20
2017-12-06T05:54:48.260Z,7.93
2017-12-06T05:57:15.850Z,7.95
2017-12-06T05:59:43.450Z,8.25
2017-12-06T06:02:11.013Z,8.55
2017-12-06T06:04:38.576Z,7.72
2017-12-06T06:07:06.945Z,8.05
2017-12-06T06:09:34.508Z,8.35
2017-12-06T06:12:02.869Z,9.02
2017-12-06T06:14:30.446Z,8.93
2017-12-06T06:16:58.089Z,8.30
2017-12-06T06:19:25.648Z,10.30
2017-12-06T06:21:53.248Z,10.57
2017-12-06T06:24:21.580Z,11.10
2017-12-06T06:26:49.174Z,11.07
2017-12-06T06:29:17.519Z,10.95
2017-12-06T06:31:45.132Z,12.35
2017-12-06T06:34:12.692Z,12.18
2017-12-06T06:36:40.256Z,12.45
2017-12-06T06:39:07.859Z,11.60
2017-12-06T06:41:35.434Z,12.70
2017-12-06T06:44:03.038Z,11.93
2017-12-06T06:46:30.626Z,11.70
2017-12-06T06:48:58.208Z,12.52
2017-12-06T06:51:26.574Z,11.73
2017-12-06T06:53:54.202Z,12.73
2017-12-06T06:56:21.812Z,10.80
2017-12-06T06:58:49.492Z,11.63
2017-12-06T07:01:17.081Z,12.05
2017-12-06T07:03:44.672Z,12.77
2017-12-06T07:06:12.289Z,11.45
2017-12-06T07:08:40.633Z,11.55
2017-12-06T07:11:08.242Z,12.10
2017-12-06T07:13:35.795Z,12.05
2017-12-06T07:16:03.367Z,13.70
2017-12-06T07:18:30.943Z,12.70
2017-12-06T07:20:58.536Z,12.15
2017-12-06T07:23:26.173Z,11.57
2017-12-06T07:25:53.746Z,12.18
2017-12-06T07:28:21.361Z,12.37
2017-12-06T07:30:48.942Z,11.85
2017-12-06T07:33:16.566Z,11.30
2017-12-06T07:35:44.927Z,10.82
2017-12-06T07:38:12.522Z,9.88
2017-12-06T07:40:40.110Z,11.77
2017-12-06T07:43:07.688Z,11.15
2017-12-06T07:45:35.278Z,10.85
2017-12-06T07:48:03.643Z,9.50
2017-12-06T07:50:31.234Z,10.70
2017-12-06T07:52:58.801Z,11.00
2017-12-06T07:55:26.406Z,11.27
2017-12-06T07:57:54.748Z,11.73
2017-12-06T08:00:22.339Z,10.30
2017-12-06T08:02:49.907Z,10.57
2017-12-06T08:05:17.460Z,12.85
2017-12-06T08:07:45.041Z,10.75
2017-12-06T08:10:12.619Z,10.52
2017-12-06T08:12:40.985Z,11.77
2017-12-06T08:15:08.564Z,11.60
2017-12-06T08:17:36.918Z,11.18
2017-12-06T08:20:04.507Z,11.65
2017-12-06T08:22:32.110Z,9.82
2017-12-06T08:24:59.677Z,11.88
2017-12-06T08:27:27.237Z,11.90
2017-12-06T08:29:54.821Z,11.50
2017-12-06T08:32:22.383Z,12.63
2017-12-06T08:34:49.992Z,11.90
2017-12-06T08:37:17.559Z,11.50
2017-12-06T08:39:45.171Z,10.52
2017-12-06T08:42:13.531Z,9.70
2017-12-06T08:44:41.127Z,13.80
2017-12-06T08:47:08.718Z,10.85
2017-12-06T08:49:36.329Z,11.40
2017-12-06T08:52:04.677Z,11.55
2017-12-06T08:54:32.246Z,11.50
2017-12-06T08:56:59.851Z,12.65
2017-12-06T08:59:27.436Z,11.60
2017-12-06T09:01:55.016Z,12.32
2017-12-06T09:04:22.608Z,12.15
2017-12-06T09:06:50.203Z,11.43
2017-12-06T09:09:17.764Z,10.95
2017-12-06T09:11:45.401Z,11.80
2017-12-06T09:14:13.741Z,11.45
2017-12-06T09:16:41.336Z,11.73
2017-12-06T09:19:09.689Z,13.07
2017-12-06T09:21:37.259Z,9.60
2017-12-06T09:24:04.837Z,9.70
2017-12-06T09:26:33.165Z,9.82
2017-12-06T09:29:00.760Z,11.90
2017-12-06T09:31:29.109Z,11.15
2017-12-06T09:33:56.728Z,9.82
2017-12-06T09:36:24.303Z,10.98
2017-12-06T09:38:51.901Z,10.30
2017-12-06T09:41:19.497Z,10.65
2017-12-06T09:43:47.847Z,11.23
2017-12-06T09:46:15.459Z,11.52
2017-12-06T09:48:43.034Z,10.40
2017-12-06T09:51:10.647Z,11.07
2017-12-06T09:53:38.966Z,10.45
2017-12-06T09:56:06.557Z,11.07
2017-12-06T09:58:34.159Z,11.48
2017-12-06T10:01:01.815Z,11.90
2017-12-06T10:03:30.134Z,13.07
2017-12-06T10:05:57.710Z,11.27
2017-12-06T10:08:25.315Z,10.10
2017-12-06T10:10:52.887Z,11.82
2017-12-06T10:13:20.476Z,12.50
2017-12-06T10:15:48.061Z,11.25
2017-12-06T10:18:15.698Z,11.05
2017-12-06T10:20:43.274Z,10.27
2017-12-06T10:23:10.904Z,10.60
2017-12-06T10:25:38.513Z,10.63
2017-12-06T10:28:06.095Z,10.10
2017-12-06T10:30:34.476Z,11.48
2017-12-06T10:33:02.818Z,11.45
2017-12-06T10:35:30.423Z,10.77
2017-12-06T10:37:58.000Z,9.98
2017-12-06T10:40:25.604Z,10.18
2017-12-06T10:42:53.964Z,12.65
2017-12-06T10:45:21.614Z,8.88
2017-12-06T10:47:49.173Z,8.65
2017-12-06T10:50:16.728Z,7.35
2017-12-06T10:52:44.336Z,7.35
2017-12-06T10:55:12.680Z,9.02
2017-12-06T10:57:40.286Z,8.13
2017-12-06T11:00:08.643Z,8.95
2017-12-06T11:02:36.248Z,9.40
2017-12-06T11:05:03.823Z,10.70
2017-12-06T11:07:31.414Z,10.07
2017-12-06T11:09:59.000Z,9.73
2017-12-06T11:12:27.735Z,8.88
2017-12-06T11:14:55.291Z,9.93
2017-12-06T11:17:22.867Z,9.15
2017-12-06T11:19:50.460Z,8.50
2017-12-06T11:22:18.789Z,8.95
2017-12-06T11:24:46.371Z,8.93
2017-12-06T11:27:13.956Z,9.68
2017-12-06T11:29:42.322Z,10.15
2017-12-06T11:32:09.893Z,10.05
2017-12-06T11:34:37.505Z,9.45
2017-12-06T11:37:05.090Z,9.10
2017-12-06T11:39:32.650Z,8.52
2017-12-06T11:42:00.263Z,8.52
2017-12-06T11:44:27.822Z,9.20
2017-12-06T11:46:55.416Z,8.65
2017-12-06T11:49:22.989Z,9.52
2017-12-06T11:51:50.581Z,11.12
2017-12-06T11:54:18.943Z,8.80
2017-12-06T11:56:46.524Z,9.23
2017-12-06T11:59:14.860Z,10.15
2017-12-06T12:01:42.450Z,9.43
2017-12-06T12:04:10.015Z,9.82
2017-12-06T12:06:38.351Z,11.20
2017-12-06T12:09:05.975Z,8.93
2017-12-06T12:11:33.538Z,7.90
2017-12-06T12:14:01.158Z,9.25
2017-12-06T12:19:02.734Z,10.30
2017-12-06T12:21:30.304Z,9.68
2017-12-06T12:23:58.655Z,9.48
2017-12-06T12:26:26.209Z,10.23
2017-12-06T12:28:53.781Z,8.63
2017-12-06T12:31:21.397Z,8.70
2017-12-06T12:33:48.966Z,9.65
2017-12-06T12:36:16.540Z,10.52
2017-12-06T12:38:44.174Z,9.77
2017-12-06T12:41:11.824Z,9.55
2017-12-06T12:43:39.456Z,11.48
2017-12-06T12:46:07.074Z,9.80
2017-12-06T12:48:34.662Z,10.60
2017-12-06T12:51:02.274Z,9.60
2017-12-06T12:53:29.874Z,9.35
2017-12-06T12:55:57.475Z,9.70
2017-12-06T12:58:25.856Z,8.38
2017-12-06T13:00:54.208Z,8.93
2017-12-06T13:03:21.924Z,10.15
2017-12-06T13:05:50.221Z,9.25
2017-12-06T13:08:17.827Z,10.73
2017-12-06T13:10:46.169Z,9.35
2017-12-06T13:13:13.795Z,9.80
2017-12-06T13:15:41.395Z,9.98
2017-12-06T13:18:08.994Z,10.52
2017-12-06T13:20:37.386Z,10.13
2017-12-06T13:23:04.969Z,8.90
2017-12-06T13:25:32.632Z,9.20
2017-12-06T13:28:00.209Z,9.50
2017-12-06T13:30:27.830Z,10.65
2017-12-06T13:32:55.424Z,8.75
2017-12-06T13:35:23.063Z,8.30
2017-12-06T13:37:50.638Z,9.20
2017-12-06T13:40:18.213Z,9.55
2017-12-06T13:42:45.860Z,8.77
2017-12-06T13:45:13.434Z,9.90
2017-12-06T13:47:41.044Z,9.32
2017-12-06T13:50:09.401Z,8.20
2017-12-06T13:52:37.041Z,9.35
2017-12-06T13:55:04.674Z,9.48
2017-12-06T13:57:32.380Z,11.27
2017-12-06T13:59:59.968Z,9.50
2017-12-06T14:02:28.327Z,10.73
2017-12-06T14:04:56.712Z,10.48
2017-12-06T14:07:25.061Z,10.27
2017-12-06T14:09:52.656Z,9.73
2017-12-06T14:12:21.020Z,8.50
2017-12-06T14:14:48.637Z,9.70
2017-12-06T14:17:16.268Z,8.82
2017-12-06T14:19:43.903Z,11.02
2017-12-06T14:22:11.484Z,9.85
2017-12-06T14:24:39.848Z,10.80
2017-12-06T14:27:08.231Z,10.02
2017-12-06T14:29:36.588Z,10.55
2017-12-06T14:32:04.205Z,11.10
2017-12-06T14:34:31.810Z,10.13
2017-12-06T14:36:59.404Z,8.57
2017-12-06T14:39:27.766Z,8.95
2017-12-06T14:41:56.149Z,9.20
2017-12-06T14:44:24.522Z,10.05
2017-12-06T14:46:52.876Z,10.00
2017-12-06T14:49:20.463Z,9.73
2017-12-06T14:51:48.859Z,9.38
2017-12-06T14:54:19.869Z,10.40
2017-12-06T14:56:47.483Z,8.77
2017-12-06T14:59:15.086Z,9.10
2017-12-06T15:01:42.659Z,9.38
2017-12-06T15:04:11.059Z,9.90
2017-12-06T15:06:39.449Z,7.65
2017-12-06T15:09:07.083Z,8.70
2017-12-06T15:11:35.454Z,8.15
2017-12-06T15:14:03.855Z,8.90
2017-12-06T15:16:31.462Z,9.43
2017-12-06T15:18:59.099Z,8.38
2017-12-06T15:21:27.314Z,8.85
2017-12-06T15:23:54.987Z,8.00
2017-12-06T15:26:24.011Z,9.05
2017-12-06T15:28:51.585Z,8.02
2017-12-06T15:31:19.720Z,8.70
2017-12-06T15:33:48.526Z,9.02
2017-12-06T15:36:16.888Z,9.77
2017-12-06T15:38:44.471Z,9.70
2017-12-06T15:41:13.143Z,10.75
2017-12-06T15:43:42.866Z,10.38
2017-12-06T15:46:10.460Z,8.70
2017-12-06T15:48:38.370Z,9.32
2017-12-06T15:51:05.953Z,9.23
2017-12-06T15:53:34.202Z,9.98
2017-12-06T15:56:05.151Z,10.45
2017-12-06T15:58:32.903Z,9.43
2017-12-06T16:01:00.463Z,9.70
2017-12-06T16:03:29.826Z,9.98
2017-12-06T16:05:57.423Z,10.32
2017-12-06T16:08:25.041Z,10.07
2017-12-06T16:10:53.292Z,9.38
2017-12-06T16:13:20.920Z,10.32
2017-12-06T16:15:49.273Z,11.12
2017-12-06T16:18:16.979Z,8.73
2017-12-06T16:20:44.774Z,8.98
2017-12-06T16:23:12.370Z,10.57
2017-12-06T16:25:39.985Z,11.15
2017-12-06T16:28:07.589Z,9.85
2017-12-06T16:30:35.232Z,10.85
2017-12-06T16:33:02.841Z,11.85
2017-12-06T16:35:42.375Z,10.43
2017-12-06T16:38:09.964Z,11.40
2017-12-06T16:40:37.547Z,11.85
2017-12-06T16:43:05.502Z,11.07
2017-12-06T16:45:33.118Z,14.00
2017-12-06T16:48:00.767Z,11.55
2017-12-06T16:50:28.352Z,11.88
2017-12-06T16:52:56.763Z,10.90
2017-12-06T16:55:24.387Z,12.30
2017-12-06T16:57:52.028Z,13.00
2017-12-06T17:00:19.701Z,14.35
2017-12-06T17:02:47.298Z,12.45
2017-12-06T17:05:14.900Z,15.65
2017-12-06T17:07:42.529Z,10.73
2017-12-06T17:10:11.259Z,13.38
2017-12-06T17:12:39.667Z,10.80
2017-12-06T17:15:08.040Z,12.15
2017-12-06T17:17:35.634Z,12.32
2017-12-06T17:20:03.247Z,14.02
2017-12-06T17:22:31.615Z,13.25
2017-12-06T17:24:59.251Z,15.07
2017-12-06T17:27:26.883Z,14.98
2017-12-06T17:30:07.136Z,13.52
2017-12-06T17:32:35.508Z,10.77
2017-12-06T17:35:03.874Z,14.32
2017-12-06T17:37:31.527Z,13.60
2017-12-06T17:39:59.138Z,12.40
2017-12-06T17:42:26.799Z,16.05
2017-12-06T17:44:54.461Z,12.43
2017-12-06T17:47:22.067Z,13.65
2017-12-06T17:49:49.699Z,11.20
2017-12-06T17:52:17.313Z,11.77
2017-12-06T17:54:45.687Z,12.43
2017-12-06T17:57:14.088Z,13.85
2017-12-06T17:59:41.705Z,14.85
2017-12-06T18:02:10.362Z,11.63
2017-12-06T18:04:38.737Z,13.25
2017-12-06T18:07:06.331Z,11.32
2017-12-06T18:09:33.900Z,12.85
2017-12-06T18:12:01.508Z,12.37
2017-12-06T18:14:29.071Z,13.75
2017-12-06T18:16:56.678Z,13.43
2017-12-06T18:19:24.292Z,11.77
2017-12-06T18:21:51.918Z,12.98
2017-12-06T18:24:20.288Z,12.18
2017-12-06T18:26:47.888Z,13.55
2017-12-06T18:29:15.488Z,12.35
2017-12-06T18:31:43.093Z,12.93
2017-12-06T18:34:10.717Z,12.23
2017-12-06T18:36:38.327Z,13.20
2017-12-06T18:39:05.955Z,12.10
2017-12-06T18:41:34.306Z,12.55
2017-12-06T18:44:01.928Z,12.40
2017-12-06T18:46:29.520Z,12.60
2017-12-06T18:48:57.124Z,13.90
2017-12-06T18:51:25.507Z,11.82
2017-12-06T18:53:53.873Z,12.77
2017-12-06T18:56:22.204Z,13.43
2017-12-06T18:58:49.760Z,13.85
2017-12-06T19:01:17.366Z,14.05
2017-12-06T19:03:44.962Z,14.00
2017-12-06T19:06:12.601Z,14.98
2017-12-06T19:08:41.023Z,13.62
2017-12-06T19:11:08.610Z,13.80
2017-12-06T19:13:36.970Z,12.27
2017-12-06T19:16:04.560Z,15.30
2017-12-06T19:18:32.135Z,15.45
2017-12-06T19:21:00.714Z,15.77
2017-12-06T19:23:29.080Z,14.15
2017-12-06T19:25:56.674Z,13.23
2017-12-06T19:28:24.278Z,13.50
2017-12-06T19:30:51.853Z,13.00
2017-12-06T19:33:19.449Z,13.05
2017-12-06T19:35:47.844Z,12.23
2017-12-06T19:38:15.421Z,12.88
2017-12-06T19:40:43.006Z,13.40
2017-12-06T19:43:11.343Z,12.93
2017-12-06T19:45:38.951Z,13.85
2017-12-06T19:48:06.525Z,15.75
2017-12-06T19:50:34.125Z,14.20
2017-12-06T19:53:01.720Z,12.90
2017-12-06T19:55:29.296Z,13.95
2017-12-06T19:57:56.861Z,13.48
2017-12-06T20:00:24.839Z,12.10
2017-12-06T20:02:52.419Z,11.82
2017-12-06T20:05:20.811Z,11.88
2017-12-06T20:07:49.127Z,13.27
2017-12-06T20:10:16.690Z,12.48
2017-12-06T20:12:44.311Z,11.15
2017-12-06T20:15:11.882Z,11.98
2017-12-06T20:17:39.490Z,13.10
2017-12-06T20:20:07.234Z,12.52
2017-12-06T20:22:34.842Z,10.57
2017-12-06T20:25:02.419Z,12.35
2017-12-06T20:27:30.034Z,12.85
2017-12-06T20:29:57.617Z,12.52
2017-12-06T20:32:25.962Z,13.43
2017-12-06T20:34:53.550Z,13.05
2017-12-06T20:37:21.868Z,11.75
2017-12-06T20:39:49.463Z,12.23
2017-12-06T20:42:17.020Z,13.57
2017-12-06T20:44:44.617Z,11.05
2017-12-06T20:47:12.194Z,11.12
2017-12-06T20:49:39.786Z,12.10
2017-12-06T20:52:07.384Z,11.23
2017-12-06T20:54:35.744Z,10.95
2017-12-06T20:57:03.339Z,10.27
2017-12-06T20:59:30.910Z,12.10
2017-12-06T21:01:58.513Z,11.95
2017-12-06T21:04:26.089Z,11.77
2017-12-06T21:06:53.685Z,11.40
2017-12-06T21:09:21.283Z,12.90
2017-12-06T21:11:48.874Z,11.32
2017-12-06T21:14:16.428Z,10.60
2017-12-06T21:16:44.001Z,10.00
2017-12-06T21:19:12.372Z,13.23
2017-12-06T21:21:39.973Z,12.93
2017-12-06T21:24:07.551Z,11.00
2017-12-06T21:26:35.113Z,10.00
2017-12-06T21:29:02.701Z,10.88
2017-12-06T21:31:30.261Z,10.88
2017-12-06T21:33:57.871Z,11.12
2017-12-06T21:36:25.438Z,11.38
2017-12-06T21:38:52.987Z,10.10
2017-12-06T21:41:20.573Z,10.35
2017-12-06T21:43:48.146Z,11.40
2017-12-06T21:46:21.394Z,10.73
2017-12-06T21:48:50.290Z,9.25
2017-12-06T21:51:17.978Z,10.45
2017-12-06T21:53:45.537Z,12.00
2017-12-06T21:56:13.123Z,10.63
2017-12-06T21:58:40.725Z,10.55
2017-12-06T22:01:08.285Z,10.18
2017-12-06T22:03:35.858Z,9.38
2017-12-06T22:06:03.451Z,9.98
2017-12-06T22:08:31.028Z,10.98
2017-12-06T22:10:58.607Z,10.93
2017-12-06T22:13:26.965Z,9.80
2017-12-06T22:15:54.536Z,8.65
2017-12-06T22:18:22.120Z,10.90
2017-12-06T22:20:49.693Z,10.13
2017-12-06T22:23:17.238Z,9.65
2017-12-06T22:25:45.586Z,10.98
2017-12-06T22:28:13.166Z,13.57
2017-12-06T22:30:41.531Z,12.20
2017-12-06T22:33:09.862Z,10.63
2017-12-06T22:35:37.454Z,11.38
2017-12-06T22:38:05.038Z,13.10
2017-12-06T22:40:33.444Z,13.02
2017-12-06T22:43:01.009Z,14.05
2017-12-06T22:45:28.582Z,14.20
2017-12-06T22:47:56.175Z,11.90
2017-12-06T22:50:23.746Z,13.95
2017-12-06T22:52:52.113Z,13.93
2017-12-06T22:55:19.676Z,12.73
2017-12-06T22:57:47.295Z,11.40
2017-12-06T23:00:14.870Z,13.07
2017-12-06T23:02:42.482Z,12.75
2017-12-06T23:05:10.844Z,11.80
2017-12-06T23:07:39.175Z,12.23
2017-12-06T23:10:06.752Z,12.93
2017-12-06T23:12:34.323Z,12.05
2017-12-06T23:15:01.932Z,10.80
2017-12-06T23:17:29.496Z,12.35
2017-12-06T23:19:57.128Z,11.43
2017-12-06T23:22:25.462Z,11.95
2017-12-06T23:24:53.034Z,11.32
2017-12-06T23:27:20.619Z,9.80
2017-12-06T23:29:48.185Z,10.80
2017-12-06T23:32:16.537Z,10.60
2017-12-06T23:34:44.116Z,10.13
2017-12-06T23:37:11.733Z,10.63
2017-12-06T23:39:39.324Z,10.18
2017-12-06T23:42:06.912Z,10.10
2017-12-06T23:44:35.253Z,11.20
2017-12-06T23:47:03.637Z,10.40
2017-12-06T23:49:31.193Z,9.82
2017-12-06T23:51:58.758Z,9.95
2017-12-06T23:54:26.372Z,11.05
2017-12-06T23:56:53.947Z,11.35
2017-12-06T23:59:21.533Z,10.93
